Terminal Aerodrome Forecast
Issued by NWS Lake Charles, LA

Home | Current Version | Previous Version | Text Only | Print | Product List | Glossary On
Versions: 1 2 3 4 5 6 7 8 9 10 11 12 13 14 15 16 17 18 19 20 21 22
000
FTUS44 KLCH 220527
TAFLFT
TAF
KLFT 220527Z 2206/2306 00000KT P6SM FEW040 BKN090
     FM220900 00000KT 4SM BR BKN025
      TEMPO 2210/2214 OVC015
     FM221500 35005KT P6SM SCT025
     FM221800 35008KT P6SM FEW025=

USA.gov is the U.S. government's official web portal to all federal, state and local government web resources and services.